Welcome to Northern Hawkes Bay. New Zealand.
PWS Header
      nz Flag



Hit Counter


W3C Valid W3C Valid logo


    Wairoa

Select any of the Stations below to visit their websites.










Historic Data from Weather Underground
Select the location of interest below. Wairoa is the default. Please have patience, this Data is slow to load in.
Northern Hawkes Bay Historical Data
Daily Summary for December 6, 2017 Units:  Metric    English   Both
« Previous Day
Next Day »
Daily Weekly Monthly Yearly Custom
  High: Low: Average:
Temperature: 22.7 °C 15.1 °C 19.4 °C
Dew Point: 18.9 °C 14.9 °C 17 °C
Humidity: 99% 67% 86%
Wind Speed: 18.3km/h 0.0km/h 5km/h
Wind Gust: 27.0km/h - -
Wind- - SSW
Pressure: 1018.8 hPa 1014.1 hPa -
Precipitation: 0.0 mm    
Historical Graphs
 
 
Tabular Data for December 6, 2017
Time Temperature Dew Point Pressure Wind Wind Speed Wind Gust Humidity Rainfall Rate (Hourly) solar
00:02 19.5 °C 18.2 °C 1014.1 hPa Calm   3.5 km/h 92% 0.0 mm 0 W/m2
00:07 19.5 °C 18.2 °C 1014.4 hPa Calm   3.5 km/h 92% 0.0 mm 0 W/m2
00:12 19.4 °C 18.1 °C 1014.4 hPa Calm   2.6 km/h 92% 0.0 mm 0 W/m2
00:17 19.3 °C 18.2 °C 1014.4 hPa Calm   2.6 km/h 93% 0.0 mm 0 W/m2
00:22 19.2 °C 17.9 °C 1014.4 hPa Calm   2.6 km/h 92% 0.0 mm 0 W/m2
00:27 19.2 °C 18.1 °C 1014.4 hPa Calm   1.1 km/h 93% 0.0 mm 0 W/m2
00:32 19.1 °C 17.9 °C 1014.4 hPa Calm   2.6 km/h 93% 0.0 mm 0 W/m2
00:37 19.1 °C 18.1 °C 1014.4 hPa Calm   2.6 km/h 94% 0.0 mm 0 W/m2
00:42 19.0 °C 18.0 °C 1014.4 hPa Calm   1.1 km/h 94% 0.0 mm 0 W/m2
00:47 18.9 °C 18.1 °C 1014.4 hPa Calm   1.1 km/h 95% 0.0 mm 0 W/m2
00:52 18.7 °C 17.9 °C 1014.4 hPa Calm   1.1 km/h 95% 0.0 mm 0 W/m2
01:02 18.6 °C 17.9 °C 1014.1 hPa Calm     96% 0.0 mm 0 W/m2
01:07 18.4 °C 17.8 °C 1014.4 hPa Calm     96% 0.0 mm 0 W/m2
01:12 18.3 °C 17.7 °C 1014.4 hPa Calm     96% 0.0 mm 0 W/m2
01:17 18.1 °C 17.4 °C 1014.1 hPa Calm     96% 0.0 mm 0 W/m2
01:22 17.9 °C 17.1 °C 1014.4 hPa Calm     95% 0.0 mm 0 W/m2
01:27 17.7 °C 17.1 °C 1014.4 hPa Calm     96% 0.0 mm 0 W/m2
01:32 17.6 °C 16.9 °C 1014.4 hPa Calm     96% 0.0 mm 0 W/m2
01:37 17.6 °C 17.1 °C 1014.4 hPa Calm     97% 0.0 mm 0 W/m2
01:42 17.5 °C 17.1 °C 1014.4 hPa Calm     97% 0.0 mm 0 W/m2
01:47 17.5 °C 17.1 °C 1014.4 hPa Calm     97% 0.0 mm 0 W/m2
01:52 17.6 °C 17.1 °C 1014.4 hPa Calm     97% 0.0 mm 0 W/m2
01:57 17.6 °C 17.1 °C 1014.8 hPa Calm     97% 0.0 mm 0 W/m2
02:02 17.6 °C 17.1 °C 1014.8 hPa Calm     97% 0.0 mm 0 W/m2
02:07 17.7 °C 17.2 °C 1014.4 hPa Calm     97% 0.0 mm 0 W/m2
02:12 17.7 °C 17.2 °C 1014.4 hPa Calm     97% 0.0 mm 0 W/m2
02:17 17.7 °C 17.2 °C 1014.4 hPa Calm     97% 0.0 mm 0 W/m2
02:22 17.7 °C 17.2 °C 1014.8 hPa Calm     97% 0.0 mm 0 W/m2
02:27 17.7 °C 17.2 °C 1014.8 hPa Calm     97% 0.0 mm 0 W/m2
02:32 17.7 °C 17.2 °C 1014.8 hPa Calm     97% 0.0 mm 0 W/m2
02:37 17.6 °C 17.1 °C 1014.8 hPa Calm     97% 0.0 mm 0 W/m2
02:42 17.5 °C 17.1 °C 1014.8 hPa Calm     97% 0.0 mm 0 W/m2
02:47 17.4 °C 16.9 °C 1014.8 hPa Calm     97% 0.0 mm 0 W/m2
02:52 17.4 °C 16.9 °C 1014.8 hPa Calm     97% 0.0 mm 0 W/m2
02:57 17.3 °C 16.8 °C 1014.4 hPa Calm     97% 0.0 mm 0 W/m2
03:02 17.1 °C 16.6 °C 1014.8 hPa Calm     97% 0.0 mm 0 W/m2
03:07 17.1 °C 16.6 °C 1014.8 hPa Calm     97% 0.0 mm 0 W/m2
03:12 17.0 °C 16.6 °C 1014.8 hPa Calm     97% 0.0 mm 0 W/m2
03:17 17.0 °C 16.6 °C 1014.8 hPa Calm     97% 0.0 mm 0 W/m2
03:22 17.0 °C 16.6 °C 1014.8 hPa Calm     97% 0.0 mm 0 W/m2
03:27 16.8 °C 16.5 °C 1014.8 hPa Calm     98% 0.0 mm 0 W/m2
03:32 16.8 °C 16.5 °C 1015.1 hPa Calm     98% 0.0 mm 0 W/m2
03:37 16.7 °C 16.4 °C 1014.8 hPa Calm     98% 0.0 mm 0 W/m2
03:42 16.6 °C 16.3 °C 1014.8 hPa Calm     98% 0.0 mm 0 W/m2
03:47 16.5 °C 16.2 °C 1014.8 hPa Calm     98% 0.0 mm 0 W/m2
03:52 16.6 °C 16.3 °C 1014.8 hPa Calm     98% 0.0 mm 0 W/m2
03:57 16.5 °C 16.2 °C 1015.1 hPa Calm     98% 0.0 mm 0 W/m2
04:02 16.3 °C 16.0 °C 1015.1 hPa Calm     98% 0.0 mm 0 W/m2
04:07 16.2 °C 15.9 °C 1014.8 hPa Calm     98% 0.0 mm 0 W/m2
04:12 16.1 °C 15.8 °C 1014.8 hPa Calm     98% 0.0 mm 0 W/m2
04:17 16.1 °C 15.8 °C 1015.1 hPa Calm     98% 0.0 mm 0 W/m2
04:22 16.0 °C 15.7 °C 1015.1 hPa Calm     98% 0.0 mm 0 W/m2
04:27 16.0 °C 15.7 °C 1015.1 hPa Calm     98% 0.0 mm 0 W/m2
04:32 16.0 °C 15.7 °C 1015.1 hPa Calm     98% 0.0 mm 0 W/m2
04:37 15.8 °C 15.7 °C 1015.1 hPa Calm     99% 0.0 mm 0 W/m2
04:42 15.9 °C 15.8 °C 1015.1 hPa Calm     99% 0.0 mm 0 W/m2
04:47 15.9 °C 15.8 °C 1015.1 hPa Calm     99% 0.0 mm 0 W/m2
04:52 15.9 °C 15.8 °C 1015.1 hPa Calm     99% 0.0 mm 0 W/m2
04:57 15.8 °C 15.7 °C 1015.1 hPa Calm     99% 0.0 mm 0 W/m2
05:02 15.8 °C 15.7 °C 1015.1 hPa Calm     99% 0.0 mm 0 W/m2
05:07 15.7 °C 15.6 °C 1015.5 hPa Calm     99% 0.0 mm 0 W/m2
05:12 15.6 °C 15.4 °C 1015.5 hPa Calm     99% 0.0 mm 0 W/m2
05:17 15.5 °C 15.3 °C 1015.5 hPa Calm     99% 0.0 mm 0 W/m2
05:23 15.5 °C 15.3 °C 1015.5 hPa Calm     99% 0.0 mm 0 W/m2
05:28 15.5 °C 15.3 °C 1015.5 hPa Calm     99% 0.0 mm 0 W/m2
05:33 15.4 °C 15.3 °C 1015.5 hPa Calm     99% 0.0 mm 0 W/m2
05:38 15.2 °C 15.1 °C 1015.8 hPa Calm     99% 0.0 mm 0 W/m2
05:43 15.1 °C 14.9 °C 1015.8 hPa Calm     99% 0.0 mm 1 W/m2
05:48 15.1 °C 14.9 °C 1015.8 hPa Calm     99% 0.0 mm 4 W/m2
05:53 15.1 °C 14.9 °C 1015.8 hPa Calm     99% 0.0 mm 7 W/m2
05:58 15.1 °C 14.9 °C 1015.8 hPa Calm     99% 0.0 mm 11 W/m2
06:03 15.2 °C 15.1 °C 1015.5 hPa Calm     99% 0.0 mm 17 W/m2
06:08 15.4 °C 15.3 °C 1015.5 hPa Calm     99% 0.0 mm 21 W/m2
06:13 15.4 °C 15.3 °C 1015.5 hPa Calm     99% 0.0 mm 26 W/m2
06:18 15.5 °C 15.3 °C 1015.5 hPa Calm     99% 0.0 mm 32 W/m2
06:23 15.7 °C 15.6 °C 1015.8 hPa Calm     99% 0.0 mm 49 W/m2
06:33 16.1 °C 15.8 °C 1015.8 hPa Calm     98% 0.0 mm 75 W/m2
06:38 16.2 °C 15.9 °C 1016.1 hPa Calm     98% 0.0 mm 83 W/m2
06:43 16.3 °C 16.0 °C 1016.1 hPa Calm     98% 0.0 mm 92 W/m2
06:48 16.6 °C 16.3 °C 1015.8 hPa Calm     98% 0.0 mm 100 W/m2
06:54 17.0 °C 16.6 °C 1016.1 hPa Calm     97% 0.0 mm 109 W/m2
06:59 17.4 °C 16.9 °C 1015.8 hPa Calm     97% 0.0 mm 118 W/m2
07:04 17.9 °C 17.3 °C 1016.1 hPa Calm     96% 0.0 mm 125 W/m2
07:09 18.5 °C 17.9 °C 1016.1 hPa Calm     96% 0.0 mm 117 W/m2
07:14 19.1 °C 17.6 °C 1016.1 hPa Calm   1.1 km/h 91% 0.0 mm 143 W/m2
07:19 20.0 °C 18.2 °C 1016.1 hPa Calm   1.1 km/h 89% 0.0 mm 154 W/m2
07:24 20.3 °C 17.9 °C 1016.1 hPa Calm   1.1 km/h 86% 0.0 mm 168 W/m2
07:29 20.6 °C 17.6 °C 1016.1 hPa SW 2.6 km/h 9.7 km/h 83% 0.0 mm 184 W/m2
07:34 20.9 °C 17.3 °C 1016.1 hPa SW 8.7 km/h 9.7 km/h 80% 0.0 mm 204 W/m2
07:39 20.9 °C 16.7 °C 1016.1 hPa SSW 3.5 km/h 12.2 km/h 77% 0.0 mm 206 W/m2
07:44 21.2 °C 16.6 °C 1016.1 hPa SSW 7.2 km/h 12.2 km/h 75% 0.0 mm 219 W/m2
07:49 21.2 °C 16.4 °C 1016.5 hPa SW 8.7 km/h 12.2 km/h 74% 0.0 mm 233 W/m2
07:54 21.1 °C 16.3 °C 1016.1 hPa SW 3.5 km/h 13.4 km/h 74% 0.0 mm 245 W/m2
07:59 21.3 °C 16.5 °C 1016.1 hPa SSW 11.1 km/h 15.8 km/h 74% 0.0 mm 261 W/m2
08:09 21.2 °C 15.9 °C 1016.5 hPa SW 11.1 km/h 15.8 km/h 72% 0.0 mm 290 W/m2
08:14 20.7 °C 15.7 °C 1016.5 hPa SW 9.7 km/h 19.5 km/h 73% 0.0 mm 288 W/m2
08:19 20.5 °C 15.5 °C 1016.5 hPa SW 11.1 km/h 19.5 km/h 73% 0.0 mm 301 W/m2
08:24 20.6 °C 15.8 °C 1016.5 hPa SW 12.2 km/h 15.8 km/h 74% 0.0 mm 292 W/m2
08:29 20.7 °C 15.7 °C 1016.8 hPa SW 7.2 km/h 15.8 km/h 73% 0.0 mm 310 W/m2
08:34 21.3 °C 16.1 °C 1016.8 hPa SW 9.7 km/h 15.8 km/h 72% 0.0 mm 348 W/m2
08:39 21.3 °C 15.4 °C 1016.8 hPa SW 6.1 km/h 19.5 km/h 69% 0.0 mm 366 W/m2
08:44 21.2 °C 15.5 °C 1016.8 hPa SW 12.2 km/h 19.5 km/h 70% 0.0 mm 379 W/m2
08:49 21.2 °C 15.3 °C 1016.8 hPa SSW 9.7 km/h 18.3 km/h 69% 0.0 mm 392 W/m2
08:54 21.3 °C 15.2 °C 1017.2 hPa SSW 7.2 km/h 18.3 km/h 68% 0.0 mm 405 W/m2
08:59 21.4 °C 15.3 °C 1016.8 hPa SSW 9.7 km/h 18.3 km/h 68% 0.0 mm 421 W/m2
09:04 21.3 °C 14.9 °C 1016.8 hPa SW 13.4 km/h 19.5 km/h 67% 0.0 mm 437 W/m2
09:09 21.3 °C 14.9 °C 1017.2 hPa SW 11.1 km/h 19.5 km/h 67% 0.0 mm 452 W/m2
09:14 21.5 °C 15.6 °C 1017.2 hPa SW 9.7 km/h 19.5 km/h 69% 0.0 mm 468 W/m2
09:19 21.4 °C 15.7 °C 1016.8 hPa SW 8.7 km/h 21.9 km/h 70% 0.0 mm 482 W/m2
09:25 21.3 °C 16.1 °C 1017.2 hPa SW 13.4 km/h 21.9 km/h 72% 0.0 mm 502 W/m2
09:29 21.3 °C 16.3 °C 1017.2 hPa SW 13.4 km/h 21.9 km/h 73% 0.0 mm 508 W/m2
09:34 21.3 °C 16.5 °C 1017.2 hPa SSW 14.8 km/h 21.9 km/h 74% 0.0 mm 529 W/m2
09:39 21.2 °C 16.4 °C 1017.2 hPa SSW 13.4 km/h 20.9 km/h 74% 0.0 mm 547 W/m2
09:45 21.2 °C 16.6 °C 1017.2 hPa SSW 13.4 km/h 20.9 km/h 75% 0.0 mm 572 W/m2
09:50 21.1 °C 16.3 °C 1017.2 hPa SSW 13.4 km/h 20.9 km/h 74% 0.0 mm 584 W/m2
09:55 21.3 °C 16.7 °C 1017.2 hPa SSW 8.7 km/h 20.9 km/h 75% 0.0 mm 631 W/m2
10:00 21.4 °C 16.6 °C 1017.2 hPa SSW 8.7 km/h 18.3 km/h 74% 0.0 mm 658 W/m2
10:06 21.0 °C 16.2 °C 1017.5 hPa SSW 12.2 km/h 20.9 km/h 74% 0.0 mm 251 W/m2
10:11 20.8 °C 16.6 °C 1017.5 hPa SSW 12.2 km/h 20.9 km/h 77% 0.0 mm 738 W/m2
10:16 21.3 °C 16.9 °C 1017.5 hPa SSW 11.1 km/h 21.9 km/h 76% 0.0 mm 617 W/m2
10:21 21.1 °C 16.9 °C 1017.5 hPa SSW 7.2 km/h 23.3 km/h 77% 0.0 mm 222 W/m2
10:26 20.7 °C 17.6 °C 1017.5 hPa SW 17.2 km/h 23.3 km/h 82% 0.0 mm 280 W/m2
10:31 20.3 °C 17.3 °C 1017.5 hPa SW 17.2 km/h 23.3 km/h 83% 0.0 mm 676 W/m2
10:36 20.3 °C 17.3 °C 1017.5 hPa SSW 17.2 km/h 23.3 km/h 83% 0.0 mm 308 W/m2
10:41 20.3 °C 17.3 °C 1017.5 hPa SSW 12.2 km/h 23.3 km/h 83% 0.0 mm 322 W/m2
10:46 20.1 °C 17.3 °C 1017.5 hPa SW 13.4 km/h 27.0 km/h 84% 0.0 mm 244 W/m2
10:51 20.1 °C 17.3 °C 1017.5 hPa SW 15.8 km/h 27.0 km/h 84% 0.0 mm 729 W/m2
10:56 20.3 °C 17.5 °C 1017.5 hPa SW 14.8 km/h 20.9 km/h 84% 0.0 mm 715 W/m2
11:01 20.3 °C 17.5 °C 1017.5 hPa SW 11.1 km/h 21.9 km/h 84% 0.0 mm 871 W/m2
11:06 20.6 °C 17.6 °C 1017.5 hPa SW 17.2 km/h 23.3 km/h 83% 0.0 mm 303 W/m2
11:11 20.3 °C 17.3 °C 1017.5 hPa SW 12.2 km/h 24.5 km/h 83% 0.0 mm 373 W/m2
11:16 20.3 °C 17.3 °C 1017.5 hPa SSW 12.2 km/h 24.5 km/h 83% 0.0 mm 774 W/m2
11:21 20.9 °C 17.9 °C 1017.5 hPa SSW 11.1 km/h 21.9 km/h 83% 0.0 mm 794 W/m2
11:26 21.2 °C 17.4 °C 1017.2 hPa SSW 14.8 km/h 23.3 km/h 79% 0.0 mm 806 W/m2
11:31 20.9 °C 17.3 °C 1017.2 hPa SSW 17.2 km/h 23.3 km/h 80% 0.0 mm 806 W/m2
11:36 20.7 °C 17.7 °C 1017.2 hPa SW 18.3 km/h 23.3 km/h 83% 0.0 mm 803 W/m2
11:41 20.6 °C 17.4 °C 1017.5 hPa SSW 13.4 km/h 23.3 km/h 82% 0.0 mm 818 W/m2
11:46 20.7 °C 17.6 °C 1017.2 hPa SSW 17.2 km/h 24.5 km/h 82% 0.0 mm 808 W/m2
11:51 20.7 °C 17.7 °C 1017.5 hPa SSW 12.2 km/h 24.5 km/h 83% 0.0 mm 766 W/m2
11:56 20.9 °C 17.6 °C 1017.2 hPa South 12.2 km/h 23.3 km/h 81% 0.0 mm 772 W/m2
12:01 21.0 °C 17.4 °C 1017.5 hPa South 13.4 km/h 17.2 km/h 80% 0.0 mm 806 W/m2
12:06 21.1 °C 17.6 °C 1017.5 hPa South 11.1 km/h 17.2 km/h 80% 0.0 mm 808 W/m2
12:11 21.1 °C 17.3 °C 1017.5 hPa South 14.8 km/h 18.3 km/h 79% 0.0 mm 818 W/m2
12:16 21.3 °C 17.7 °C 1017.5 hPa South 11.1 km/h 18.3 km/h 80% 0.0 mm 795 W/m2
12:21 21.3 °C 17.3 °C 1017.5 hPa SSW 12.2 km/h 18.3 km/h 78% 0.0 mm 722 W/m2
12:26 21.3 °C 17.3 °C 1017.5 hPa SSW 9.7 km/h 17.2 km/h 78% 0.0 mm 791 W/m2
12:32 21.2 °C 17.2 °C 1017.5 hPa SSW 8.7 km/h 18.3 km/h 78% 0.0 mm 748 W/m2
12:37 21.2 °C 17.4 °C 1017.5 hPa SSW 12.2 km/h 18.3 km/h 79% 0.0 mm 796 W/m2
12:42 21.0 °C 17.2 °C 1017.2 hPa SSW 12.2 km/h 18.3 km/h 79% 0.0 mm 821 W/m2
12:47 20.9 °C 17.3 °C 1017.2 hPa SSW 8.7 km/h 18.3 km/h 80% 0.0 mm 842 W/m2
12:52 21.1 °C 17.3 °C 1017.2 hPa SSW 7.2 km/h 15.8 km/h 79% 0.0 mm 839 W/m2
12:57 21.4 °C 17.0 °C 1017.2 hPa SSW 7.2 km/h 15.8 km/h 76% 0.0 mm 775 W/m2
13:02 21.2 °C 16.8 °C 1017.2 hPa SSW 7.2 km/h 14.8 km/h 76% 0.0 mm 687 W/m2
13:07 21.2 °C 16.6 °C 1017.2 hPa SSW 6.1 km/h 15.8 km/h 75% 0.0 mm 817 W/m2
13:12 21.2 °C 17.0 °C 1017.2 hPa SSW 7.2 km/h 18.3 km/h 77% 0.0 mm 811 W/m2
13:17 21.2 °C 17.0 °C 1016.8 hPa South 9.7 km/h 18.3 km/h 77% 0.0 mm 803 W/m2
13:22 21.2 °C 16.8 °C 1016.8 hPa South 7.2 km/h 15.8 km/h 76% 0.0 mm 801 W/m2
13:27 21.5 °C 16.7 °C 1016.8 hPa South 7.2 km/h 15.8 km/h 74% 0.0 mm 802 W/m2
13:32 21.3 °C 16.7 °C 1017.2 hPa South 11.1 km/h 14.8 km/h 75% 0.0 mm 796 W/m2
13:37 21.2 °C 17.0 °C 1016.8 hPa SSW 8.7 km/h 17.2 km/h 77% 0.0 mm 791 W/m2
13:42 21.3 °C 16.7 °C 1016.8 hPa SSW 8.7 km/h 17.2 km/h 75% 0.0 mm 787 W/m2
13:48 21.7 °C 17.3 °C 1016.8 hPa South 8.7 km/h 15.8 km/h 76% 0.0 mm 771 W/m2
13:53 21.3 °C 16.7 °C 1017.2 hPa South 7.2 km/h 15.8 km/h 75% 0.0 mm 761 W/m2
13:58 21.1 °C 17.1 °C 1017.2 hPa South 7.2 km/h 15.8 km/h 78% 0.0 mm 764 W/m2
14:03 21.3 °C 17.3 °C 1017.2 hPa SSW 9.7 km/h 15.8 km/h 78% 0.0 mm 759 W/m2
14:08 21.7 °C 17.7 °C 1016.8 hPa South 9.7 km/h 14.8 km/h 78% 0.0 mm 760 W/m2
14:13 21.4 °C 17.2 °C 1017.2 hPa South 11.1 km/h 17.2 km/h 77% 0.0 mm 752 W/m2
14:18 21.3 °C 17.1 °C 1016.8 hPa SSW 7.2 km/h 17.2 km/h 77% 0.0 mm 745 W/m2
14:23 21.1 °C 17.3 °C 1016.8 hPa South 9.7 km/h 17.2 km/h 79% 0.0 mm 732 W/m2
14:28 21.5 °C 17.7 °C 1017.2 hPa SSW 7.2 km/h 17.2 km/h 79% 0.0 mm 728 W/m2
14:33 21.8 °C 17.8 °C 1017.2 hPa SSW 5.0 km/h 14.8 km/h 78% 0.0 mm 731 W/m2
14:38 21.5 °C 17.5 °C 1017.2 hPa SSW 8.7 km/h 15.8 km/h 78% 0.0 mm 735 W/m2
14:43 21.5 °C 17.5 °C 1016.8 hPa South 8.7 km/h 17.2 km/h 78% 0.0 mm 731 W/m2
14:48 21.5 °C 17.5 °C 1016.8 hPa South 12.2 km/h 18.3 km/h 78% 0.0 mm 710 W/m2
14:53 21.4 °C 17.4 °C 1017.2 hPa South 7.2 km/h 18.3 km/h 78% 0.0 mm 697 W/m2
14:58 21.7 °C 17.9 °C 1017.2 hPa South 11.1 km/h 18.3 km/h 79% 0.0 mm 709 W/m2
15:03 21.8 °C 18.0 °C 1016.8 hPa South 9.7 km/h 17.2 km/h 79% 0.0 mm 689 W/m2
15:08 21.7 °C 17.7 °C 1016.8 hPa SSW 8.7 km/h 17.2 km/h 78% 0.0 mm 682 W/m2
15:13 21.7 °C 17.9 °C 1017.2 hPa SSW 8.7 km/h 18.3 km/h 79% 0.0 mm 676 W/m2
15:18 21.5 °C 17.7 °C 1017.2 hPa South 12.2 km/h 18.3 km/h 79% 0.0 mm 684 W/m2
15:23 21.7 °C 17.9 °C 1017.2 hPa South 8.7 km/h 17.2 km/h 79% 0.0 mm 653 W/m2
15:28 21.8 °C 18.2 °C 1017.2 hPa South 8.7 km/h 18.3 km/h 80% 0.0 mm 631 W/m2
15:33 22.0 °C 17.8 °C 1017.2 hPa South 12.2 km/h 19.5 km/h 77% 0.0 mm 619 W/m2
15:38 21.5 °C 17.5 °C 1017.2 hPa South 7.2 km/h 19.5 km/h 78% 0.0 mm 614 W/m2
15:43 21.8 °C 17.8 °C 1017.2 hPa South 5.0 km/h 18.3 km/h 78% 0.0 mm 598 W/m2
15:48 22.2 °C 17.4 °C 1016.8 hPa South 1.1 km/h 17.2 km/h 74% 0.0 mm 590 W/m2
15:53 22.7 °C 18.1 °C 1017.2 hPa South 9.7 km/h 17.2 km/h 75% 0.0 mm 571 W/m2
15:58 22.4 °C 18.0 °C 1017.2 hPa South 9.7 km/h 14.8 km/h 76% 0.0 mm 577 W/m2
16:03 22.1 °C 17.9 °C 1017.2 hPa South 9.7 km/h 18.3 km/h 77% 0.0 mm 568 W/m2
16:08 22.0 °C 18.0 °C 1017.2 hPa SSW 12.2 km/h 20.9 km/h 78% 0.0 mm 564 W/m2
16:13 22.2 °C 18.4 °C 1017.2 hPa South 7.2 km/h 20.9 km/h 79% 0.0 mm 558 W/m2
16:18 22.6 °C 18.2 °C 1017.2 hPa SSW 7.2 km/h 17.2 km/h 76% 0.0 mm 554 W/m2
16:23 22.6 °C 17.9 °C 1017.2 hPa South 9.7 km/h 14.8 km/h 75% 0.0 mm 492 W/m2
16:43 22.1 °C 18.3 °C 1017.2 hPa SSW 9.7 km/h 17.2 km/h 79% 0.0 mm 510 W/m2
16:48 21.7 °C 18.5 °C 1017.2 hPa SSW 9.7 km/h 17.2 km/h 82% 0.0 mm 287 W/m2
16:53 21.6 °C 18.4 °C 1017.2 hPa SSW 13.4 km/h 17.2 km/h 82% 0.0 mm 341 W/m2
16:58 21.7 °C 18.9 °C 1017.2 hPa SSW 6.1 km/h 17.2 km/h 84% 0.0 mm 485 W/m2
17:03 22.3 °C 18.7 °C 1017.2 hPa South 9.7 km/h 15.8 km/h 80% 0.0 mm 493 W/m2
17:08 22.3 °C 18.7 °C 1017.2 hPa South 7.2 km/h 15.8 km/h 80% 0.0 mm 426 W/m2
17:13 21.9 °C 18.3 °C 1017.2 hPa South 9.7 km/h 15.8 km/h 80% 0.0 mm 190 W/m2
17:18 21.5 °C 18.3 °C 1017.5 hPa South 8.7 km/h 15.8 km/h 82% 0.0 mm 222 W/m2
17:23 21.3 °C 18.5 °C 1017.2 hPa SSW 8.7 km/h 15.8 km/h 84% 0.0 mm 196 W/m2
17:28 21.0 °C 18.2 °C 1017.2 hPa SSW 15.8 km/h 18.3 km/h 84% 0.0 mm 186 W/m2
17:33 20.6 °C 18.2 °C 1017.2 hPa SSW 6.1 km/h 18.3 km/h 86% 0.0 mm 131 W/m2
17:38 20.2 °C 18.0 °C 1017.2 hPa SSW 7.2 km/h 19.5 km/h 87% 0.0 mm 142 W/m2
17:43 20.2 °C 18.3 °C 1017.2 hPa South 6.1 km/h 19.5 km/h 89% 0.0 mm 150 W/m2
17:48 20.3 °C 18.3 °C 1017.2 hPa SSW 6.1 km/h 15.8 km/h 88% 0.0 mm 119 W/m2
17:53 20.4 °C 18.6 °C 1017.2 hPa SSW 5.0 km/h 15.8 km/h 89% 0.0 mm 96 W/m2
17:59 20.4 °C 18.4 °C 1017.2 hPa SSW 6.1 km/h 12.2 km/h 88% 0.0 mm 117 W/m2
18:04 20.3 °C 18.3 °C 1017.5 hPa SSW 5.0 km/h 13.4 km/h 88% 0.0 mm 146 W/m2
18:09 20.4 °C 18.4 °C 1017.2 hPa SSW 9.7 km/h 13.4 km/h 88% 0.0 mm 148 W/m2
18:14 20.4 °C 18.2 °C 1017.2 hPa SSW 6.1 km/h 14.8 km/h 87% 0.0 mm 124 W/m2
18:19 20.4 °C 18.4 °C 1017.5 hPa SSW 2.6 km/h 14.8 km/h 88% 0.0 mm 108 W/m2
18:24 20.4 °C 18.4 °C 1017.2 hPa SSW 7.2 km/h 13.4 km/h 88% 0.0 mm 104 W/m2
18:29 20.2 °C 18.2 °C 1017.2 hPa SSW 6.1 km/h 11.1 km/h 88% 0.0 mm 112 W/m2
18:34 20.1 °C 18.1 °C 1017.5 hPa SSW 3.5 km/h 11.1 km/h 88% 0.0 mm 94 W/m2
18:39 20.0 °C 17.9 °C 1017.5 hPa South 2.6 km/h 11.1 km/h 88% 0.0 mm 102 W/m2
18:44 20.0 °C 17.9 °C 1017.2 hPa South 3.5 km/h 9.7 km/h 88% 0.0 mm 99 W/m2
18:49 20.1 °C 18.1 °C 1017.5 hPa South 6.1 km/h 8.7 km/h 88% 0.0 mm 83 W/m2
18:54 20.1 °C 18.1 °C 1017.5 hPa SSW 3.5 km/h 9.7 km/h 88% 0.0 mm 82 W/m2
18:59 20.0 °C 17.9 °C 1017.5 hPa SSW 5.0 km/h 9.7 km/h 88% 0.0 mm 85 W/m2
19:04 19.9 °C 18.1 °C 1017.5 hPa SSW 6.1 km/h 9.7 km/h 89% 0.0 mm 86 W/m2
19:09 19.8 °C 17.8 °C 1017.5 hPa SSW 2.6 km/h 9.7 km/h 88% 0.0 mm 75 W/m2
19:14 19.8 °C 17.9 °C 1017.5 hPa SSW 2.6 km/h 8.7 km/h 89% 0.0 mm 57 W/m2
19:19 19.8 °C 17.9 °C 1017.8 hPa SSE 3.5 km/h 7.2 km/h 89% 0.0 mm 43 W/m2
19:24 19.7 °C 17.7 °C 1017.8 hPa South 5.0 km/h 8.7 km/h 88% 0.0 mm 36 W/m2
19:29 19.7 °C 17.5 °C 1017.8 hPa SSW 2.6 km/h 8.7 km/h 87% 0.0 mm 42 W/m2
19:34 19.6 °C 17.2 °C 1017.8 hPa SSW 2.6 km/h 8.7 km/h 86% 0.0 mm 43 W/m2
19:39 19.7 °C 17.3 °C 1017.8 hPa SSW 2.6 km/h 7.2 km/h 86% 0.0 mm 31 W/m2
19:44 19.6 °C 17.6 °C 1017.8 hPa SSW 5.0 km/h 7.2 km/h 88% 0.0 mm 23 W/m2
19:49 19.6 °C 17.6 °C 1017.8 hPa SSW 2.6 km/h 7.2 km/h 88% 0.0 mm 13 W/m2
19:54 19.4 °C 17.6 °C 1018.2 hPa South 5.0 km/h 9.7 km/h 89% 0.0 mm 6 W/m2
19:59 19.3 °C 17.4 °C 1018.2 hPa South 5.0 km/h 9.7 km/h 89% 0.0 mm 4 W/m2
20:04 19.2 °C 17.6 °C 1018.2 hPa SSW 5.0 km/h 9.7 km/h 90% 0.0 mm 5 W/m2
20:09 19.2 °C 17.7 °C 1017.8 hPa SSW 1.1 km/h 9.7 km/h 91% 0.0 mm 3 W/m2
20:14 19.1 °C 17.8 °C 1018.2 hPa South 2.6 km/h 9.7 km/h 92% 0.0 mm 2 W/m2
20:19 19.1 °C 17.6 °C 1017.8 hPa South 2.6 km/h 7.2 km/h 91% 0.0 mm 0 W/m2
20:24 19.0 °C 17.5 °C 1017.8 hPa South 2.6 km/h 7.2 km/h 91% 0.0 mm 0 W/m2
20:29 19.0 °C 17.5 °C 1018.2 hPa South 3.5 km/h 6.1 km/h 91% 0.0 mm 0 W/m2
20:34 18.9 °C 17.4 °C 1017.8 hPa SSE 3.5 km/h 7.2 km/h 91% 0.0 mm 0 W/m2
20:39 19.0 °C 17.3 °C 1017.8 hPa South 3.5 km/h 7.2 km/h 90% 0.0 mm 0 W/m2
20:44 19.0 °C 17.5 °C 1018.2 hPa South 1.1 km/h 7.2 km/h 91% 0.0 mm 0 W/m2
20:49 19.0 °C 17.5 °C 1017.8 hPa South 2.6 km/h 7.2 km/h 91% 0.0 mm 0 W/m2
20:54 19.0 °C 17.7 °C 1017.8 hPa South 2.6 km/h 6.1 km/h 92% 0.0 mm 0 W/m2
20:59 18.9 °C 17.6 °C 1018.2 hPa Calm   6.1 km/h 92% 0.0 mm 0 W/m2
21:04 18.8 °C 17.3 °C 1018.2 hPa South 2.6 km/h 6.1 km/h 91% 0.0 mm 0 W/m2
21:09 18.8 °C 17.3 °C 1018.2 hPa Calm   6.1 km/h 91% 0.0 mm 0 W/m2
21:14 18.9 °C 17.2 °C 1018.2 hPa Calm   6.1 km/h 90% 0.0 mm 0 W/m2
21:17 18.9 °C 17.2 °C 1018.5 hPa Calm   5.0 km/h 90% 0.0 mm 0 W/m2
21:22 18.9 °C 17.1 °C 1018.2 hPa SSE 3.5 km/h 5.0 km/h 89% 0.0 mm 0 W/m2
21:27 18.9 °C 17.1 °C 1018.2 hPa Calm   5.0 km/h 89% 0.0 mm 0 W/m2
21:32 18.9 °C 17.1 °C 1018.5 hPa Calm   5.0 km/h 89% 0.0 mm 0 W/m2
21:37 18.8 °C 16.9 °C 1018.5 hPa Calm   3.5 km/h 89% 0.0 mm 0 W/m2
21:42 18.8 °C 16.8 °C 1018.5 hPa Calm   5.0 km/h 88% 0.0 mm 0 W/m2
21:47 18.8 °C 16.8 °C 1018.5 hPa Calm   5.0 km/h 88% 0.0 mm 0 W/m2
21:52 18.8 °C 16.6 °C 1018.5 hPa Calm   5.0 km/h 87% 0.0 mm 0 W/m2
21:57 18.9 °C 16.7 °C 1018.5 hPa SE 1.1 km/h 5.0 km/h 87% 0.0 mm 0 W/m2
22:02 18.9 °C 16.5 °C 1018.5 hPa SSE 1.1 km/h 5.0 km/h 86% 0.0 mm 0 W/m2
22:12 18.9 °C 16.5 °C 1018.5 hPa Calm   5.0 km/h 86% 0.0 mm 0 W/m2
22:17 19.0 °C 16.2 °C 1018.5 hPa Calm   5.0 km/h 84% 0.0 mm 0 W/m2
22:22 19.0 °C 16.2 °C 1018.2 hPa East 2.6 km/h 6.1 km/h 84% 0.0 mm 0 W/m2
22:27 19.1 °C 16.3 °C 1018.5 hPa Calm   6.1 km/h 84% 0.0 mm 0 W/m2
22:32 19.0 °C 16.4 °C 1018.2 hPa Calm   5.0 km/h 85% 0.0 mm 0 W/m2
22:37 19.0 °C 16.4 °C 1018.2 hPa Calm   2.6 km/h 85% 0.0 mm 0 W/m2
22:42 19.0 °C 16.4 °C 1018.5 hPa Calm   2.6 km/h 85% 0.0 mm 0 W/m2
22:47 19.0 °C 16.4 °C 1018.5 hPa Calm   2.6 km/h 85% 0.0 mm 0 W/m2
22:52 18.9 °C 16.5 °C 1018.5 hPa Calm     86% 0.0 mm 0 W/m2
22:57 18.9 °C 16.5 °C 1018.5 hPa Calm   1.1 km/h 86% 0.0 mm 0 W/m2
23:02 18.9 °C 16.5 °C 1018.5 hPa Calm   2.6 km/h 86% 0.0 mm 0 W/m2
23:07 18.9 °C 16.3 °C 1018.5 hPa Calm   3.5 km/h 85% 0.0 mm 0 W/m2
23:12 18.9 °C 16.3 °C 1018.5 hPa ESE 2.6 km/h 5.0 km/h 85% 0.0 mm 0 W/m2
23:17 19.0 °C 16.4 °C 1018.5 hPa East 5.0 km/h 7.2 km/h 85% 0.0 mm 0 W/m2
23:22 19.0 °C 16.4 °C 1018.8 hPa East 1.1 km/h 7.2 km/h 85% 0.0 mm 0 W/m2
23:27 19.0 °C 16.4 °C 1018.5 hPa Calm   7.2 km/h 85% 0.0 mm 0 W/m2
23:32 18.9 °C 16.3 °C 1018.2 hPa Calm   5.0 km/h 85% 0.0 mm 0 W/m2
23:37 18.9 °C 16.3 °C 1018.5 hPa East 1.1 km/h 6.1 km/h 85% 0.0 mm 0 W/m2
23:42 18.9 °C 16.2 °C 1018.5 hPa ENE 3.5 km/h 6.1 km/h 84% 0.0 mm 0 W/m2
23:47 18.9 °C 15.9 °C 1018.5 hPa Calm   6.1 km/h 83% 0.0 mm 0 W/m2
23:52 18.9 °C 16.2 °C 1018.5 hPa ESE 1.1 km/h 5.0 km/h 84% 0.0 mm 0 W/m2
23:57 18.9 °C 16.2 °C 1018.5 hPa Calm   3.5 km/h 84% 0.0 mm 0 W/m2
Northern Hawkes Bay. New Zealand Historic Data
Compliments of Weather Underground - 2 mb